sensor_id;sensor_type;location;lat;lon;timestamp;pressure;altitude;pressure_sealevel;temperature;humidity
22862;BME280;11598;50.652;6.172;2023-04-26T00:08:12;96648.31;;;0.54;92.65
22862;BME280;11598;50.652;6.172;2023-04-26T00:28:15;96634.56;;;0.02;93.82
22862;BME280;11598;50.652;6.172;2023-04-26T00:38:15;96639.59;;;-0.25;93.64
22862;BME280;11598;50.652;6.172;2023-04-26T00:48:16;96637.59;;;-0.45;94.24
22862;BME280;11598;50.652;6.172;2023-04-26T00:58:17;96638.66;;;-0.52;95.09
22862;BME280;11598;50.652;6.172;2023-04-26T01:08:20;96635.44;;;-0.59;95.67
22862;BME280;11598;50.652;6.172;2023-04-26T01:18:22;96634.72;;;-0.64;96.30
22862;BME280;11598;50.652;6.172;2023-04-26T01:28:23;96644.31;;;-0.72;96.83
22862;BME280;11598;50.652;6.172;2023-04-26T01:38:23;96635.28;;;-0.84;97.22
22862;BME280;11598;50.652;6.172;2023-04-26T01:48:23;96638.19;;;-0.98;97.17
22862;BME280;11598;50.652;6.172;2023-04-26T01:58:24;96630.75;;;-1.07;98.10
22862;BME280;11598;50.652;6.172;2023-04-26T02:08:24;96634.38;;;-1.16;98.09
22862;BME280;11598;50.652;6.172;2023-04-26T02:18:25;96623.56;;;-1.24;98.54
22862;BME280;11598;50.652;6.172;2023-04-26T02:28:25;96630.50;;;-1.31;98.92
22862;BME280;11598;50.652;6.172;2023-04-26T02:38:26;96634.06;;;-1.36;99.03
22862;BME280;11598;50.652;6.172;2023-04-26T02:48:26;96617.91;;;-1.37;99.34
22862;BME280;11598;50.652;6.172;2023-04-26T02:58:27;96605.13;;;-1.35;99.68
22862;BME280;11598;50.652;6.172;2023-04-26T03:08:27;96592.63;;;-1.46;99.79
22862;BME280;11598;50.652;6.172;2023-04-26T03:18:27;96581.97;;;-1.60;100.00
22862;BME280;11598;50.652;6.172;2023-04-26T03:28:28;96578.78;;;-1.70;100.00
22862;BME280;11598;50.652;6.172;2023-04-26T03:38:28;96590.84;;;-1.77;100.00
22862;BME280;11598;50.652;6.172;2023-04-26T03:48:28;96586.72;;;-1.81;100.00
22862;BME280;11598;50.652;6.172;2023-04-26T03:58:29;96584.28;;;-1.87;100.00
22862;BME280;11598;50.652;6.172;2023-04-26T04:08:29;96585.22;;;-1.91;100.00
22862;BME280;11598;50.652;6.172;2023-04-26T04:18:31;96589.59;;;-1.96;100.00
22862;BME280;11598;50.652;6.172;2023-04-26T04:28:32;96592.94;;;-1.93;100.00
22862;BME280;11598;50.652;6.172;2023-04-26T04:38:33;96602.63;;;-1.73;100.00
22862;BME280;11598;50.652;6.172;2023-04-26T04:48:34;96599.94;;;-1.32;100.00
22862;BME280;11598;50.652;6.172;2023-04-26T04:58:37;96610.78;;;-0.58;100.00
22862;BME280;11598;50.652;6.172;2023-04-26T05:08:38;96622.72;;;-0.01;100.00
22862;BME280;11598;50.652;6.172;2023-04-26T05:18:38;96629.47;;;0.02;100.00
22862;BME280;11598;50.652;6.172;2023-04-26T05:28:39;96639.56;;;0.05;100.00
22862;BME280;11598;50.652;6.172;2023-04-26T05:38:39;96635.63;;;0.51;100.00
22862;BME280;11598;50.652;6.172;2023-04-26T05:48:40;96639.81;;;1.30;100.00
22862;BME280;11598;50.652;6.172;2023-04-26T05:58:40;96645.66;;;1.82;98.32
22862;BME280;11598;50.652;6.172;2023-04-26T06:08:41;96646.00;;;2.41;97.15
22862;BME280;11598;50.652;6.172;2023-04-26T06:18:42;96646.81;;;3.47;94.63
22862;BME280;11598;50.652;6.172;2023-04-26T06:28:43;96640.75;;;4.25;90.88
22862;BME280;11598;50.652;6.172;2023-04-26T06:38:43;96651.16;;;4.95;89.03
22862;BME280;11598;50.652;6.172;2023-04-26T06:48:43;96657.13;;;5.65;84.21
22862;BME280;11598;50.652;6.172;2023-04-26T06:59:01;96653.25;;;5.56;79.89
22862;BME280;11598;50.652;6.172;2023-04-26T07:09:02;96665.25;;;5.90;77.15
22862;BME280;11598;50.652;6.172;2023-04-26T07:19:03;96663.13;;;6.14;75.94
22862;BME280;11598;50.652;6.172;2023-04-26T07:29:03;96667.38;;;6.16;74.39
22862;BME280;11598;50.652;6.172;2023-04-26T07:39:04;96675.94;;;6.16;72.64
22862;BME280;11598;50.652;6.172;2023-04-26T07:49:05;96662.28;;;5.98;70.34
22862;BME280;11598;50.652;6.172;2023-04-26T07:59:06;96645.16;;;6.29;70.36
22862;BME280;11598;50.652;6.172;2023-04-26T08:09:06;96634.41;;;6.68;68.88
22862;BME280;11598;50.652;6.172;2023-04-26T08:19:07;96649.41;;;6.46;68.35
22862;BME280;11598;50.652;6.172;2023-04-26T08:29:07;96664.00;;;6.47;68.98
22862;BME280;11598;50.652;6.172;2023-04-26T08:39:08;96659.16;;;6.41;67.53
22862;BME280;11598;50.652;6.172;2023-04-26T08:49:21;96662.31;;;6.46;67.53
22862;BME280;11598;50.652;6.172;2023-04-26T08:59:29;96652.91;;;6.45;66.69
22862;BME280;11598;50.652;6.172;2023-04-26T09:09:34;96650.84;;;6.51;64.20
22862;BME280;11598;50.652;6.172;2023-04-26T09:19:39;96650.97;;;6.32;62.55
22862;BME280;11598;50.652;6.172;2023-04-26T09:30:00;96650.38;;;6.75;60.95
22862;BME280;11598;50.652;6.172;2023-04-26T09:40:01;96639.38;;;7.32;62.53
22862;BME280;11598;50.652;6.172;2023-04-26T09:50:01;96626.00;;;7.82;62.69
22862;BME280;11598;50.652;6.172;2023-04-26T10:00:06;96629.72;;;8.07;60.32
22862;BME280;11598;50.652;6.172;2023-04-26T10:10:11;96634.91;;;7.78;57.11
22862;BME280;11598;50.652;6.172;2023-04-26T10:20:12;96619.34;;;7.50;59.08
22862;BME280;11598;50.652;6.172;2023-04-26T10:30:15;96619.16;;;8.10;59.08
22862;BME280;11598;50.652;6.172;2023-04-26T10:40:24;96615.38;;;8.57;60.43
22862;BME280;11598;50.652;6.172;2023-04-26T10:50:25;96617.09;;;8.71;57.29
22862;BME280;11598;50.652;6.172;2023-04-26T11:00:28;96599.06;;;8.28;55.99
22862;BME280;11598;50.652;6.172;2023-04-26T11:10:29;96593.38;;;8.50;54.83
22862;BME280;11598;50.652;6.172;2023-04-26T11:20:33;96582.16;;;8.64;56.06
22862;BME280;11598;50.652;6.172;2023-04-26T11:30:33;96564.38;;;8.98;54.04
22862;BME280;11598;50.652;6.172;2023-04-26T11:40:34;96567.88;;;8.71;52.41
22862;BME280;11598;50.652;6.172;2023-04-26T11:50:37;96575.22;;;8.23;51.79
22862;BME280;11598;50.652;6.172;2023-04-26T12:01:00;96574.50;;;8.21;52.05
22862;BME280;11598;50.652;6.172;2023-04-26T12:11:04;96573.63;;;8.49;51.86
22862;BME280;11598;50.652;6.172;2023-04-26T12:21:04;96574.16;;;8.67;52.75
22862;BME280;11598;50.652;6.172;2023-04-26T12:31:05;96565.06;;;8.61;52.80
22862;BME280;11598;50.652;6.172;2023-04-26T12:41:06;96566.63;;;8.77;51.23
22862;BME280;11598;50.652;6.172;2023-04-26T12:51:07;96557.34;;;8.47;50.97
22862;BME280;11598;50.652;6.172;2023-04-26T13:01:08;96558.81;;;8.37;51.25
22862;BME280;11598;50.652;6.172;2023-04-26T13:11:08;96566.38;;;8.13;52.68
22862;BME280;11598;50.652;6.172;2023-04-26T13:21:09;96555.59;;;8.33;53.66
22862;BME280;11598;50.652;6.172;2023-04-26T13:31:09;96565.13;;;8.60;53.39
22862;BME280;11598;50.652;6.172;2023-04-26T13:41:11;96564.34;;;8.72;52.15
22862;BME280;11598;50.652;6.172;2023-04-26T13:51:11;96561.16;;;8.81;51.92
22862;BME280;11598;50.652;6.172;2023-04-26T14:01:12;96559.22;;;8.58;52.23
22862;BME280;11598;50.652;6.172;2023-04-26T14:11:15;96562.97;;;8.54;52.06
22862;BME280;11598;50.652;6.172;2023-04-26T14:21:16;96554.22;;;8.82;53.76
22862;BME280;11598;50.652;6.172;2023-04-26T14:31:16;96560.78;;;8.60;53.61
22862;BME280;11598;50.652;6.172;2023-04-26T14:41:18;96552.31;;;8.71;53.57
22862;BME280;11598;50.652;6.172;2023-04-26T14:51:18;96551.28;;;8.74;53.29
22862;BME280;11598;50.652;6.172;2023-04-26T15:01:18;96545.09;;;8.76;54.57
22862;BME280;11598;50.652;6.172;2023-04-26T15:11:19;96546.03;;;8.88;54.21
22862;BME280;11598;50.652;6.172;2023-04-26T15:21:20;96530.06;;;8.81;54.71
22862;BME280;11598;50.652;6.172;2023-04-26T15:31:21;96539.97;;;8.62;54.64
22862;BME280;11598;50.652;6.172;2023-04-26T15:41:21;96539.97;;;8.35;54.78
22862;BME280;11598;50.652;6.172;2023-04-26T15:51:22;96540.59;;;8.11;56.37
22862;BME280;11598;50.652;6.172;2023-04-26T16:01:22;96546.75;;;7.96;56.08
22862;BME280;11598;50.652;6.172;2023-04-26T16:11:23;96555.66;;;7.63;56.65
22862;BME280;11598;50.652;6.172;2023-04-26T16:21:23;96546.97;;;7.50;58.00
22862;BME280;11598;50.652;6.172;2023-04-26T16:31:24;96554.56;;;7.67;58.35
22862;BME280;11598;50.652;6.172;2023-04-26T16:41:25;96554.28;;;7.57;57.09
22862;BME280;11598;50.652;6.172;2023-04-26T16:51:26;96551.78;;;7.56;58.26
22862;BME280;11598;50.652;6.172;2023-04-26T17:01:27;96543.28;;;7.54;57.17
22862;BME280;11598;50.652;6.172;2023-04-26T17:11:27;96541.25;;;7.30;57.42
22862;BME280;11598;50.652;6.172;2023-04-26T17:21:28;96549.91;;;7.01;58.51
22862;BME280;11598;50.652;6.172;2023-04-26T17:31:28;96556.31;;;6.79;58.33
22862;BME280;11598;50.652;6.172;2023-04-26T17:41:29;96555.91;;;6.56;58.58
22862;BME280;11598;50.652;6.172;2023-04-26T17:51:29;96564.56;;;6.40;59.95
22862;BME280;11598;50.652;6.172;2023-04-26T18:01:30;96570.41;;;6.27;59.79
22862;BME280;11598;50.652;6.172;2023-04-26T18:11:30;96588.81;;;6.05;59.64
22862;BME280;11598;50.652;6.172;2023-04-26T18:21:31;96592.53;;;5.84;59.54
22862;BME280;11598;50.652;6.172;2023-04-26T18:31:33;96612.38;;;5.66;61.39
22862;BME280;11598;50.652;6.172;2023-04-26T18:41:33;96611.16;;;5.40;62.70
22862;BME280;11598;50.652;6.172;2023-04-26T18:51:34;96610.66;;;5.16;63.90
22862;BME280;11598;50.652;6.172;2023-04-26T19:01:34;96616.03;;;4.94;64.89
22862;BME280;11598;50.652;6.172;2023-04-26T19:11:35;96619.19;;;4.81;64.83
22862;BME280;11598;50.652;6.172;2023-04-26T19:21:35;96631.69;;;4.72;65.73
22862;BME280;11598;50.652;6.172;2023-04-26T19:31:35;96633.06;;;4.61;66.73
22862;BME280;11598;50.652;6.172;2023-04-26T19:41:36;96637.72;;;4.53;68.26
22862;BME280;11598;50.652;6.172;2023-04-26T19:51:38;96650.19;;;4.43;69.62
22862;BME280;11598;50.652;6.172;2023-04-26T20:01:38;96648.94;;;4.33;69.61
22862;BME280;11598;50.652;6.172;2023-04-26T20:11:38;96668.91;;;4.28;69.40
22862;BME280;11598;50.652;6.172;2023-04-26T20:21:39;96663.22;;;4.21;69.31
22862;BME280;11598;50.652;6.172;2023-04-26T20:31:39;96659.38;;;4.11;69.32
22862;BME280;11598;50.652;6.172;2023-04-26T20:41:39;96659.09;;;3.98;70.27
22862;BME280;11598;50.652;6.172;2023-04-26T20:51:40;96657.00;;;3.88;70.95
22862;BME280;11598;50.652;6.172;2023-04-26T21:01:41;96657.59;;;3.74;71.38
22862;BME280;11598;50.652;6.172;2023-04-26T21:11:41;96676.22;;;3.60;71.66
22862;BME280;11598;50.652;6.172;2023-04-26T21:21:42;96676.41;;;3.55;71.15
22862;BME280;11598;50.652;6.172;2023-04-26T21:31:42;96676.66;;;3.49;70.88
22862;BME280;11598;50.652;6.172;2023-04-26T21:41:43;96677.63;;;3.26;73.09
22862;BME280;11598;50.652;6.172;2023-04-26T21:51:43;96674.34;;;3.02;75.34
22862;BME280;11598;50.652;6.172;2023-04-26T22:01:43;96659.97;;;2.98;76.82
22862;BME280;11598;50.652;6.172;2023-04-26T22:11:44;96664.28;;;2.97;78.21
22862;BME280;11598;50.652;6.172;2023-04-26T22:21:44;96670.38;;;2.95;78.93
22862;BME280;11598;50.652;6.172;2023-04-26T22:31:45;96671.31;;;2.92;79.19
22862;BME280;11598;50.652;6.172;2023-04-26T22:41:45;96674.13;;;2.86;79.55
22862;BME280;11598;50.652;6.172;2023-04-26T22:51:45;96674.56;;;2.75;80.66
22862;BME280;11598;50.652;6.172;2023-04-26T23:01:46;96674.56;;;2.75;81.11
22862;BME280;11598;50.652;6.172;2023-04-26T23:11:46;96678.66;;;2.80;81.91
22862;BME280;11598;50.652;6.172;2023-04-26T23:21:47;96672.25;;;2.69;82.03
22862;BME280;11598;50.652;6.172;2023-04-26T23:31:47;96672.84;;;2.54;82.01
22862;BME280;11598;50.652;6.172;2023-04-26T23:41:47;96688.69;;;2.42;82.28
22862;BME280;11598;50.652;6.172;2023-04-26T23:51:47;96700.09;;;2.35;82.28
